sensor_id;sensor_type;location;lat;lon;timestamp;noise_LAeq;noise_LA_min;noise_LA_max;noise_LA01;noise_LA95
73638;Laerm;53743;51.100;5.874;2023-08-06T00:00:54;32.56;28.91;44.63;;
73638;Laerm;53743;51.100;5.874;2023-08-06T00:01:55;52.85;28.98;67.65;;
73638;Laerm;53743;51.100;5.874;2023-08-06T00:02:57;33.06;28.99;46.23;;
73638;Laerm;53743;51.100;5.874;2023-08-06T00:03:59;35.18;29.31;41.56;;
73638;Laerm;53743;51.100;5.874;2023-08-06T00:05:01;58.99;29.17;75.77;;
73638;Laerm;53743;51.100;5.874;2023-08-06T00:06:05;31.83;29.15;38.27;;
73638;Laerm;53743;51.100;5.874;2023-08-06T00:07:07;53.16;28.64;72.31;;
73638;Laerm;53743;51.100;5.874;2023-08-06T00:08:08;40.14;28.59;55.61;;
73638;Laerm;53743;51.100;5.874;2023-08-06T00:09:11;57.34;30.89;74.44;;
73638;Laerm;53743;51.100;5.874;2023-08-06T00:10:12;33.70;29.14;39.88;;
73638;Laerm;53743;51.100;5.874;2023-08-06T00:11:14;31.03;28.28;37.49;;
73638;Laerm;53743;51.100;5.874;2023-08-06T00:12:16;55.75;29.50;69.99;;
73638;Laerm;53743;51.100;5.874;2023-08-06T00:13:18;54.58;29.83;70.76;;
73638;Laerm;53743;51.100;5.874;2023-08-06T00:14:20;34.79;29.02;46.60;;
73638;Laerm;53743;51.100;5.874;2023-08-06T00:15:22;57.20;29.88;71.17;;
73638;Laerm;53743;51.100;5.874;2023-08-06T00:16:23;58.62;28.71;71.14;;
73638;Laerm;53743;51.100;5.874;2023-08-06T00:17:25;58.56;28.79;75.04;;
73638;Laerm;53743;51.100;5.874;2023-08-06T00:18:26;46.47;29.00;62.94;;
73638;Laerm;53743;51.100;5.874;2023-08-06T00:19:28;35.68;29.14;46.36;;
73638;Laerm;53743;51.100;5.874;2023-08-06T00:20:30;56.54;29.37;72.04;;
73638;Laerm;53743;51.100;5.874;2023-08-06T00:21:32;52.79;29.01;68.08;;
73638;Laerm;53743;51.100;5.874;2023-08-06T00:22:34;59.60;31.72;77.37;;
73638;Laerm;53743;51.100;5.874;2023-08-06T00:23:36;35.78;28.83;46.53;;
73638;Laerm;53743;51.100;5.874;2023-08-06T00:24:37;54.75;28.66;71.85;;
73638;Laerm;53743;51.100;5.874;2023-08-06T00:25:39;57.07;28.75;70.46;;
73638;Laerm;53743;51.100;5.874;2023-08-06T00:26:40;55.15;29.49;71.23;;
73638;Laerm;53743;51.100;5.874;2023-08-06T00:27:44;40.17;28.51;58.86;;
73638;Laerm;53743;51.100;5.874;2023-08-06T00:28:45;36.32;30.16;45.00;;
73638;Laerm;53743;51.100;5.874;2023-08-06T00:29:47;34.75;29.87;43.20;;
73638;Laerm;53743;51.100;5.874;2023-08-06T00:30:53;60.42;30.68;83.14;;
73638;Laerm;53743;51.100;5.874;2023-08-06T00:31:55;48.81;29.10;65.02;;
73638;Laerm;53743;51.100;5.874;2023-08-06T00:32:57;63.63;33.68;75.26;;
73638;Laerm;53743;51.100;5.874;2023-08-06T00:33:58;31.86;28.55;37.78;;
73638;Laerm;53743;51.100;5.874;2023-08-06T00:35:00;30.84;28.04;38.12;;
73638;Laerm;53743;51.100;5.874;2023-08-06T00:36:01;33.13;28.58;40.36;;
73638;Laerm;53743;51.100;5.874;2023-08-06T00:37:04;58.82;34.45;70.98;;
73638;Laerm;53743;51.100;5.874;2023-08-06T00:38:06;54.73;31.62;68.85;;
73638;Laerm;53743;51.100;5.874;2023-08-06T00:39:07;61.11;31.55;77.15;;
73638;Laerm;53743;51.100;5.874;2023-08-06T00:40:09;55.71;30.30;71.34;;
73638;Laerm;53743;51.100;5.874;2023-08-06T00:41:10;40.88;30.42;50.84;;
73638;Laerm;53743;51.100;5.874;2023-08-06T00:42:12;57.09;29.94;72.45;;
73638;Laerm;53743;51.100;5.874;2023-08-06T00:43:15;57.27;30.92;72.97;;
73638;Laerm;53743;51.100;5.874;2023-08-06T00:44:17;34.06;29.37;40.60;;
73638;Laerm;53743;51.100;5.874;2023-08-06T00:45:18;32.83;29.48;37.71;;
73638;Laerm;53743;51.100;5.874;2023-08-06T00:46:21;34.12;29.45;42.48;;
73638;Laerm;53743;51.100;5.874;2023-08-06T00:47:23;32.88;28.97;39.24;;
73638;Laerm;53743;51.100;5.874;2023-08-06T00:48:24;34.61;28.84;49.07;;
73638;Laerm;53743;51.100;5.874;2023-08-06T00:49:27;58.70;28.88;75.36;;
73638;Laerm;53743;51.100;5.874;2023-08-06T00:50:28;31.97;28.83;36.65;;
73638;Laerm;53743;51.100;5.874;2023-08-06T00:51:31;52.71;29.02;66.09;;
73638;Laerm;53743;51.100;5.874;2023-08-06T00:52:33;57.54;28.90;77.52;;
73638;Laerm;53743;51.100;5.874;2023-08-06T00:53:36;42.67;27.53;58.10;;
73638;Laerm;53743;51.100;5.874;2023-08-06T00:54:38;32.41;27.67;40.58;;
73638;Laerm;53743;51.100;5.874;2023-08-06T00:55:41;32.18;28.40;39.39;;
73638;Laerm;53743;51.100;5.874;2023-08-06T00:56:46;32.61;28.64;42.12;;
73638;Laerm;53743;51.100;5.874;2023-08-06T00:57:49;30.51;27.23;41.12;;
73638;Laerm;53743;51.100;5.874;2023-08-06T00:58:54;30.01;27.94;34.44;;
73638;Laerm;53743;51.100;5.874;2023-08-06T00:59:57;31.17;27.79;43.84;;
73638;Laerm;53743;51.100;5.874;2023-08-06T01:00:58;31.02;28.06;39.90;;
73638;Laerm;53743;51.100;5.874;2023-08-06T01:02:01;30.65;29.08;33.39;;
73638;Laerm;53743;51.100;5.874;2023-08-06T01:03:02;37.28;29.55;46.88;;
73638;Laerm;53743;51.100;5.874;2023-08-06T01:04:04;56.26;29.73;71.55;;
73638;Laerm;53743;51.100;5.874;2023-08-06T01:05:06;53.46;31.26;69.68;;
73638;Laerm;53743;51.100;5.874;2023-08-06T01:06:09;37.47;29.60;52.51;;
73638;Laerm;53743;51.100;5.874;2023-08-06T01:07:29;57.40;29.70;71.63;;
73638;Laerm;53743;51.100;5.874;2023-08-06T01:08:48;49.15;29.47;68.95;;
73638;Laerm;53743;51.100;5.874;2023-08-06T01:10:19;58.64;30.17;76.34;;
73638;Laerm;53743;51.100;5.874;2023-08-06T01:11:33;54.51;29.57;70.31;;
73638;Laerm;53743;51.100;5.874;2023-08-06T01:12:55;31.11;28.98;36.01;;
73638;Laerm;53743;51.100;5.874;2023-08-06T01:14:10;31.17;29.10;43.10;;
73638;Laerm;53743;51.100;5.874;2023-08-06T01:15:22;55.89;29.73;72.17;;
73638;Laerm;53743;51.100;5.874;2023-08-06T01:16:26;31.01;29.03;34.52;;
73638;Laerm;53743;51.100;5.874;2023-08-06T01:17:30;31.53;29.48;37.89;;
73638;Laerm;53743;51.100;5.874;2023-08-06T01:18:31;58.76;32.40;77.43;;
73638;Laerm;53743;51.100;5.874;2023-08-06T01:19:33;51.92;28.74;70.71;;
73638;Laerm;53743;51.100;5.874;2023-08-06T01:20:36;30.57;28.98;33.56;;
73638;Laerm;53743;51.100;5.874;2023-08-06T01:21:38;34.81;29.35;46.12;;
73638;Laerm;53743;51.100;5.874;2023-08-06T01:22:39;53.10;29.99;66.92;;
73638;Laerm;53743;51.100;5.874;2023-08-06T01:23:43;55.91;29.61;70.67;;
73638;Laerm;53743;51.100;5.874;2023-08-06T01:24:50;31.11;28.70;34.85;;
73638;Laerm;53743;51.100;5.874;2023-08-06T01:26:00;30.30;28.69;33.18;;
73638;Laerm;53743;51.100;5.874;2023-08-06T01:27:11;30.45;28.90;32.33;;
73638;Laerm;53743;51.100;5.874;2023-08-06T01:28:40;30.61;28.95;34.99;;
73638;Laerm;53743;51.100;5.874;2023-08-06T01:29:56;31.92;29.25;38.91;;
73638;Laerm;53743;51.100;5.874;2023-08-06T01:31:04;35.37;29.53;43.64;;
73638;Laerm;53743;51.100;5.874;2023-08-06T01:32:11;32.92;29.12;41.02;;
73638;Laerm;53743;51.100;5.874;2023-08-06T01:33:21;30.51;28.93;38.76;;
73638;Laerm;53743;51.100;5.874;2023-08-06T01:34:28;30.49;28.72;38.62;;
73638;Laerm;53743;51.100;5.874;2023-08-06T01:35:33;51.99;28.85;66.44;;
73638;Laerm;53743;51.100;5.874;2023-08-06T01:36:39;30.55;28.72;37.48;;
73638;Laerm;53743;51.100;5.874;2023-08-06T01:37:43;30.01;28.59;33.94;;
73638;Laerm;53743;51.100;5.874;2023-08-06T01:38:45;41.59;28.44;58.54;;
73638;Laerm;53743;51.100;5.874;2023-08-06T01:39:47;50.01;28.26;64.49;;
73638;Laerm;53743;51.100;5.874;2023-08-06T01:40:48;32.48;28.48;44.96;;
73638;Laerm;53743;51.100;5.874;2023-08-06T01:41:50;34.59;29.40;43.73;;
73638;Laerm;53743;51.100;5.874;2023-08-06T01:42:51;30.58;28.48;34.55;;
73638;Laerm;53743;51.100;5.874;2023-08-06T01:43:54;30.05;28.20;34.65;;
73638;Laerm;53743;51.100;5.874;2023-08-06T01:44:55;52.94;29.58;67.50;;
73638;Laerm;53743;51.100;5.874;2023-08-06T01:45:57;30.49;28.82;32.94;;
73638;Laerm;53743;51.100;5.874;2023-08-06T01:46:59;30.41;28.72;34.22;;
73638;Laerm;53743;51.100;5.874;2023-08-06T01:48:00;31.70;28.76;39.76;;
73638;Laerm;53743;51.100;5.874;2023-08-06T01:49:02;55.93;28.58;71.28;;
73638;Laerm;53743;51.100;5.874;2023-08-06T01:50:04;29.77;28.31;31.42;;
73638;Laerm;53743;51.100;5.874;2023-08-06T01:51:10;30.06;28.40;32.77;;
73638;Laerm;53743;51.100;5.874;2023-08-06T01:52:12;29.92;28.33;37.60;;
73638;Laerm;53743;51.100;5.874;2023-08-06T01:53:14;29.88;28.03;33.73;;
73638;Laerm;53743;51.100;5.874;2023-08-06T01:54:16;30.44;28.44;35.04;;
73638;Laerm;53743;51.100;5.874;2023-08-06T01:55:19;29.95;28.44;32.18;;
73638;Laerm;53743;51.100;5.874;2023-08-06T01:56:20;56.63;28.53;76.92;;
73638;Laerm;53743;51.100;5.874;2023-08-06T01:57:23;48.13;30.62;65.08;;
73638;Laerm;53743;51.100;5.874;2023-08-06T01:58:24;31.88;28.91;38.11;;
73638;Laerm;53743;51.100;5.874;2023-08-06T01:59:25;30.04;28.56;33.68;;
73638;Laerm;53743;51.100;5.874;2023-08-06T02:00:27;30.90;28.45;39.67;;
73638;Laerm;53743;51.100;5.874;2023-08-06T02:01:29;29.95;28.41;38.54;;
73638;Laerm;53743;51.100;5.874;2023-08-06T02:02:31;30.10;28.53;35.11;;
73638;Laerm;53743;51.100;5.874;2023-08-06T02:03:34;30.08;28.34;32.42;;
73638;Laerm;53743;51.100;5.874;2023-08-06T02:04:36;56.00;28.84;71.48;;
73638;Laerm;53743;51.100;5.874;2023-08-06T02:05:37;30.95;28.16;40.89;;
73638;Laerm;53743;51.100;5.874;2023-08-06T02:06:41;30.19;28.08;37.05;;
73638;Laerm;53743;51.100;5.874;2023-08-06T02:07:44;29.42;28.06;35.15;;
73638;Laerm;53743;51.100;5.874;2023-08-06T02:08:46;29.63;27.97;32.74;;
73638;Laerm;53743;51.100;5.874;2023-08-06T02:09:49;29.59;27.78;34.45;;
73638;Laerm;53743;51.100;5.874;2023-08-06T02:10:51;41.43;27.90;57.10;;
73638;Laerm;53743;51.100;5.874;2023-08-06T02:11:52;57.50;27.85;73.43;;
73638;Laerm;53743;51.100;5.874;2023-08-06T02:12:54;29.34;27.92;31.65;;
73638;Laerm;53743;51.100;5.874;2023-08-06T02:13:55;29.44;27.85;31.30;;
73638;Laerm;53743;51.100;5.874;2023-08-06T02:14:57;29.42;27.81;32.47;;
73638;Laerm;53743;51.100;5.874;2023-08-06T02:15:58;29.79;28.32;32.19;;
73638;Laerm;53743;51.100;5.874;2023-08-06T02:17:00;29.41;27.86;33.68;;
73638;Laerm;53743;51.100;5.874;2023-08-06T02:18:01;29.47;27.69;32.38;;
73638;Laerm;53743;51.100;5.874;2023-08-06T02:19:03;29.61;28.04;32.23;;
73638;Laerm;53743;51.100;5.874;2023-08-06T02:20:06;29.92;28.02;33.74;;
73638;Laerm;53743;51.100;5.874;2023-08-06T02:21:09;29.65;28.11;32.10;;
73638;Laerm;53743;51.100;5.874;2023-08-06T02:22:10;29.63;28.15;33.81;;
73638;Laerm;53743;51.100;5.874;2023-08-06T02:23:13;29.67;28.19;32.80;;
73638;Laerm;53743;51.100;5.874;2023-08-06T02:24:14;29.56;27.87;34.80;;
73638;Laerm;53743;51.100;5.874;2023-08-06T02:25:16;31.26;28.06;40.10;;
73638;Laerm;53743;51.100;5.874;2023-08-06T02:26:18;29.86;28.10;41.27;;
73638;Laerm;53743;51.100;5.874;2023-08-06T02:27:20;30.24;27.67;46.74;;
73638;Laerm;53743;51.100;5.874;2023-08-06T02:28:21;54.94;28.37;75.60;;
73638;Laerm;53743;51.100;5.874;2023-08-06T02:29:23;29.29;27.86;32.16;;
73638;Laerm;53743;51.100;5.874;2023-08-06T02:30:24;29.55;27.77;38.23;;
73638;Laerm;53743;51.100;5.874;2023-08-06T02:31:26;36.37;28.03;50.42;;
73638;Laerm;53743;51.100;5.874;2023-08-06T02:32:28;62.62;28.28;76.13;;
73638;Laerm;53743;51.100;5.874;2023-08-06T02:33:33;29.72;27.84;42.86;;
73638;Laerm;53743;51.100;5.874;2023-08-06T02:34:34;29.75;27.91;40.44;;
73638;Laerm;53743;51.100;5.874;2023-08-06T02:35:36;29.86;28.23;31.96;;
73638;Laerm;53743;51.100;5.874;2023-08-06T02:36:38;30.25;28.25;48.32;;
73638;Laerm;53743;51.100;5.874;2023-08-06T02:37:41;31.31;28.02;51.78;;
73638;Laerm;53743;51.100;5.874;2023-08-06T02:38:43;30.48;28.21;51.94;;
73638;Laerm;53743;51.100;5.874;2023-08-06T02:39:45;29.84;28.05;44.81;;
73638;Laerm;53743;51.100;5.874;2023-08-06T02:40:46;29.60;27.91;41.41;;
73638;Laerm;53743;51.100;5.874;2023-08-06T02:41:48;37.24;27.96;50.40;;
73638;Laerm;53743;51.100;5.874;2023-08-06T02:42:50;53.95;28.58;68.08;;
73638;Laerm;53743;51.100;5.874;2023-08-06T02:43:52;29.92;28.10;40.25;;
73638;Laerm;53743;51.100;5.874;2023-08-06T02:44:54;33.65;28.14;50.82;;
73638;Laerm;53743;51.100;5.874;2023-08-06T02:45:57;31.47;27.89;48.92;;
73638;Laerm;53743;51.100;5.874;2023-08-06T02:46:58;32.17;29.52;50.71;;
73638;Laerm;53743;51.100;5.874;2023-08-06T02:48:00;56.55;30.09;70.76;;
73638;Laerm;53743;51.100;5.874;2023-08-06T02:49:03;33.11;29.04;44.98;;
73638;Laerm;53743;51.100;5.874;2023-08-06T02:50:06;30.51;28.27;44.47;;
73638;Laerm;53743;51.100;5.874;2023-08-06T02:51:08;30.56;28.47;41.38;;
73638;Laerm;53743;51.100;5.874;2023-08-06T02:52:10;30.25;27.95;50.07;;
73638;Laerm;53743;51.100;5.874;2023-08-06T02:53:11;29.93;28.02;48.82;;
73638;Laerm;53743;51.100;5.874;2023-08-06T02:54:15;30.85;28.23;42.01;;
73638;Laerm;53743;51.100;5.874;2023-08-06T02:55:16;30.15;28.30;38.74;;
73638;Laerm;53743;51.100;5.874;2023-08-06T02:56:20;29.66;27.88;35.08;;
73638;Laerm;53743;51.100;5.874;2023-08-06T02:57:42;60.79;28.66;78.74;;
73638;Laerm;53743;51.100;5.874;2023-08-06T02:58:44;33.92;28.59;47.64;;
73638;Laerm;53743;51.100;5.874;2023-08-06T02:59:55;29.98;27.89;36.82;;
73638;Laerm;53743;51.100;5.874;2023-08-06T03:01:00;30.12;28.10;40.66;;
73638;Laerm;53743;51.100;5.874;2023-08-06T03:02:05;29.61;27.87;40.47;;
73638;Laerm;53743;51.100;5.874;2023-08-06T03:03:31;30.21;28.14;44.72;;
73638;Laerm;53743;51.100;5.874;2023-08-06T03:04:34;57.31;28.43;71.95;;
73638;Laerm;53743;51.100;5.874;2023-08-06T03:05:36;29.56;27.79;36.03;;
73638;Laerm;53743;51.100;5.874;2023-08-06T03:06:38;30.84;27.68;49.59;;
73638;Laerm;53743;51.100;5.874;2023-08-06T03:07:40;38.49;28.52;56.27;;
73638;Laerm;53743;51.100;5.874;2023-08-06T03:08:49;29.69;27.84;43.98;;
73638;Laerm;53743;51.100;5.874;2023-08-06T03:09:53;29.78;27.72;39.02;;
73638;Laerm;53743;51.100;5.874;2023-08-06T03:10:55;30.53;27.94;50.20;;
73638;Laerm;53743;51.100;5.874;2023-08-06T03:11:57;29.37;27.66;34.25;;
73638;Laerm;53743;51.100;5.874;2023-08-06T03:12:59;29.38;27.88;34.39;;
73638;Laerm;53743;51.100;5.874;2023-08-06T03:14:01;33.92;28.08;46.36;;
73638;Laerm;53743;51.100;5.874;2023-08-06T03:15:03;55.06;27.76;68.39;;
73638;Laerm;53743;51.100;5.874;2023-08-06T03:16:04;30.11;28.07;49.18;;
73638;Laerm;53743;51.100;5.874;2023-08-06T03:17:06;30.44;28.62;45.03;;
73638;Laerm;53743;51.100;5.874;2023-08-06T03:18:07;31.25;28.99;41.83;;
73638;Laerm;53743;51.100;5.874;2023-08-06T03:19:09;32.87;29.55;50.55;;
73638;Laerm;53743;51.100;5.874;2023-08-06T03:20:11;35.09;30.79;54.62;;
73638;Laerm;53743;51.100;5.874;2023-08-06T03:21:13;44.41;32.29;54.46;;
73638;Laerm;53743;51.100;5.874;2023-08-06T03:22:14;56.79;36.70;71.20;;
73638;Laerm;53743;51.100;5.874;2023-08-06T03:23:16;42.13;36.90;57.67;;
73638;Laerm;53743;51.100;5.874;2023-08-06T03:24:17;60.14;38.88;76.04;;
73638;Laerm;53743;51.100;5.874;2023-08-06T03:25:22;44.57;38.46;68.08;;
73638;Laerm;53743;51.100;5.874;2023-08-06T03:26:24;45.41;36.38;71.46;;
73638;Laerm;53743;51.100;5.874;2023-08-06T03:27:26;36.56;31.50;48.50;;
73638;Laerm;53743;51.100;5.874;2023-08-06T03:28:28;33.35;29.40;50.76;;
73638;Laerm;53743;51.100;5.874;2023-08-06T03:29:30;31.40;28.80;49.15;;
73638;Laerm;53743;51.100;5.874;2023-08-06T03:30:34;31.26;28.79;46.95;;
73638;Laerm;53743;51.100;5.874;2023-08-06T03:31:37;30.60;28.93;38.73;;
73638;Laerm;53743;51.100;5.874;2023-08-06T03:32:38;30.29;28.64;37.52;;
73638;Laerm;53743;51.100;5.874;2023-08-06T03:33:40;30.70;28.27;49.36;;
73638;Laerm;53743;51.100;5.874;2023-08-06T03:34:46;30.83;28.78;43.00;;
73638;Laerm;53743;51.100;5.874;2023-08-06T03:35:49;32.18;28.85;49.00;;
73638;Laerm;53743;51.100;5.874;2023-08-06T03:36:50;61.54;34.79;76.57;;
73638;Laerm;53743;51.100;5.874;2023-08-06T03:37:52;40.97;28.61;56.49;;
73638;Laerm;53743;51.100;5.874;2023-08-06T03:38:53;29.96;28.16;37.62;;
73638;Laerm;53743;51.100;5.874;2023-08-06T03:39:56;53.98;28.40;70.55;;
73638;Laerm;53743;51.100;5.874;2023-08-06T03:40:58;35.17;28.43;46.97;;
73638;Laerm;53743;51.100;5.874;2023-08-06T03:42:00;30.00;28.00;40.89;;
73638;Laerm;53743;51.100;5.874;2023-08-06T03:43:03;29.96;28.34;39.78;;
73638;Laerm;53743;51.100;5.874;2023-08-06T03:44:05;30.19;28.47;35.51;;
73638;Laerm;53743;51.100;5.874;2023-08-06T03:45:08;30.24;28.48;36.48;;
73638;Laerm;53743;51.100;5.874;2023-08-06T03:46:11;30.60;28.86;36.81;;
73638;Laerm;53743;51.100;5.874;2023-08-06T03:47:12;30.80;28.63;36.44;;
73638;Laerm;53743;51.100;5.874;2023-08-06T03:48:14;30.48;28.61;37.24;;
73638;Laerm;53743;51.100;5.874;2023-08-06T03:49:15;32.02;28.92;37.19;;
73638;Laerm;53743;51.100;5.874;2023-08-06T03:50:17;30.58;28.16;50.71;;
73638;Laerm;53743;51.100;5.874;2023-08-06T03:51:18;34.57;28.43;45.90;;
73638;Laerm;53743;51.100;5.874;2023-08-06T03:52:22;31.63;28.26;40.85;;
73638;Laerm;53743;51.100;5.874;2023-08-06T03:53:23;29.53;27.75;36.35;;
73638;Laerm;53743;51.100;5.874;2023-08-06T03:54:25;54.32;28.25;67.81;;
73638;Laerm;53743;51.100;5.874;2023-08-06T03:55:27;32.65;28.19;42.84;;
73638;Laerm;53743;51.100;5.874;2023-08-06T03:56:30;60.77;28.08;75.93;;
73638;Laerm;53743;51.100;5.874;2023-08-06T03:57:31;31.47;28.28;38.76;;
73638;Laerm;53743;51.100;5.874;2023-08-06T03:58:34;30.09;28.08;38.24;;
73638;Laerm;53743;51.100;5.874;2023-08-06T03:59:35;30.11;27.85;38.12;;
73638;Laerm;53743;51.100;5.874;2023-08-06T04:00:37;31.71;27.70;40.12;;
73638;Laerm;53743;51.100;5.874;2023-08-06T04:01:38;30.72;28.24;37.18;;
73638;Laerm;53743;51.100;5.874;2023-08-06T04:02:40;30.00;28.16;37.45;;
73638;Laerm;53743;51.100;5.874;2023-08-06T04:03:41;45.01;28.48;61.79;;
73638;Laerm;53743;51.100;5.874;2023-08-06T04:04:44;54.85;28.19;69.64;;
73638;Laerm;53743;51.100;5.874;2023-08-06T04:05:45;31.19;28.15;37.71;;
73638;Laerm;53743;51.100;5.874;2023-08-06T04:06:47;30.36;28.07;38.16;;
73638;Laerm;53743;51.100;5.874;2023-08-06T04:07:48;30.59;28.02;47.91;;
73638;Laerm;53743;51.100;5.874;2023-08-06T04:08:50;32.85;28.03;44.81;;
73638;Laerm;53743;51.100;5.874;2023-08-06T04:09:57;30.95;28.06;46.21;;
73638;Laerm;53743;51.100;5.874;2023-08-06T04:11:00;32.18;28.19;40.65;;
73638;Laerm;53743;51.100;5.874;2023-08-06T04:12:03;30.89;28.50;39.45;;
73638;Laerm;53743;51.100;5.874;2023-08-06T04:13:05;31.09;28.40;38.99;;
73638;Laerm;53743;51.100;5.874;2023-08-06T04:14:06;33.31;29.25;51.67;;
73638;Laerm;53743;51.100;5.874;2023-08-06T04:15:09;32.62;30.00;47.89;;
73638;Laerm;53743;51.100;5.874;2023-08-06T04:16:10;34.42;30.51;51.10;;
73638;Laerm;53743;51.100;5.874;2023-08-06T04:17:13;35.16;30.50;57.67;;
73638;Laerm;53743;51.100;5.874;2023-08-06T04:18:14;58.69;30.48;73.16;;
73638;Laerm;53743;51.100;5.874;2023-08-06T04:19:16;39.29;32.26;63.17;;
73638;Laerm;53743;51.100;5.874;2023-08-06T04:20:17;58.63;31.29;78.67;;
73638;Laerm;53743;51.100;5.874;2023-08-06T04:21:19;36.51;30.76;54.77;;
73638;Laerm;53743;51.100;5.874;2023-08-06T04:22:22;37.21;31.25;64.94;;
73638;Laerm;53743;51.100;5.874;2023-08-06T04:23:24;65.88;31.96;78.30;;
73638;Laerm;53743;51.100;5.874;2023-08-06T04:24:26;58.09;31.99;74.64;;
73638;Laerm;53743;51.100;5.874;2023-08-06T04:25:28;44.40;30.05;63.53;;
73638;Laerm;53743;51.100;5.874;2023-08-06T04:26:29;33.52;29.40;49.83;;
73638;Laerm;53743;51.100;5.874;2023-08-06T04:27:32;32.22;29.44;45.70;;
73638;Laerm;53743;51.100;5.874;2023-08-06T04:28:33;35.73;29.57;50.18;;
73638;Laerm;53743;51.100;5.874;2023-08-06T04:29:35;35.55;29.24;50.36;;
73638;Laerm;53743;51.100;5.874;2023-08-06T04:30:37;37.33;29.33;49.97;;
73638;Laerm;53743;51.100;5.874;2023-08-06T04:31:39;37.67;31.10;46.71;;
73638;Laerm;53743;51.100;5.874;2023-08-06T04:32:41;57.72;30.97;71.97;;
73638;Laerm;53743;51.100;5.874;2023-08-06T04:33:43;48.78;29.68;69.51;;
73638;Laerm;53743;51.100;5.874;2023-08-06T04:34:47;56.21;31.42;70.56;;
73638;Laerm;53743;51.100;5.874;2023-08-06T04:35:54;44.42;33.70;53.53;;
73638;Laerm;53743;51.100;5.874;2023-08-06T04:36:58;57.48;32.76;71.94;;
73638;Laerm;53743;51.100;5.874;2023-08-06T04:38:00;61.29;31.97;76.13;;
73638;Laerm;53743;51.100;5.874;2023-08-06T04:39:02;57.76;30.97;71.33;;
73638;Laerm;53743;51.100;5.874;2023-08-06T04:40:04;58.27;29.72;72.33;;
73638;Laerm;53743;51.100;5.874;2023-08-06T04:41:06;54.81;31.48;70.24;;
73638;Laerm;53743;51.100;5.874;2023-08-06T04:42:08;41.37;31.13;61.91;;
73638;Laerm;53743;51.100;5.874;2023-08-06T04:43:11;61.44;31.60;78.19;;
73638;Laerm;53743;51.100;5.874;2023-08-06T04:44:12;56.60;35.58;71.12;;
73638;Laerm;53743;51.100;5.874;2023-08-06T04:45:15;63.05;32.52;76.10;;
73638;Laerm;53743;51.100;5.874;2023-08-06T04:46:16;57.69;31.31;73.32;;
73638;Laerm;53743;51.100;5.874;2023-08-06T04:47:18;59.12;30.87;74.40;;
73638;Laerm;53743;51.100;5.874;2023-08-06T04:48:19;35.78;30.43;56.77;;
73638;Laerm;53743;51.100;5.874;2023-08-06T04:49:21;62.39;34.17;75.19;;
73638;Laerm;53743;51.100;5.874;2023-08-06T04:50:23;61.53;34.38;74.02;;
73638;Laerm;53743;51.100;5.874;2023-08-06T04:51:25;59.82;31.11;75.14;;
73638;Laerm;53743;51.100;5.874;2023-08-06T04:52:26;55.38;30.90;70.54;;
73638;Laerm;53743;51.100;5.874;2023-08-06T04:53:29;59.23;29.93;74.04;;
73638;Laerm;53743;51.100;5.874;2023-08-06T04:54:30;37.61;28.92;58.39;;
73638;Laerm;53743;51.100;5.874;2023-08-06T04:55:32;34.00;29.11;49.32;;
73638;Laerm;53743;51.100;5.874;2023-08-06T04:56:33;54.26;29.24;70.83;;
73638;Laerm;53743;51.100;5.874;2023-08-06T04:57:34;58.81;29.21;75.37;;
73638;Laerm;53743;51.100;5.874;2023-08-06T04:58:38;58.28;29.11;73.05;;
73638;Laerm;53743;51.100;5.874;2023-08-06T04:59:39;57.80;28.86;73.80;;
73638;Laerm;53743;51.100;5.874;2023-08-06T05:00:42;31.20;28.70;37.86;;
73638;Laerm;53743;51.100;5.874;2023-08-06T05:01:43;31.16;28.46;49.14;;
73638;Laerm;53743;51.100;5.874;2023-08-06T05:02:45;60.19;30.21;74.86;;
73638;Laerm;53743;51.100;5.874;2023-08-06T05:03:47;54.84;29.08;69.77;;
73638;Laerm;53743;51.100;5.874;2023-08-06T05:04:49;31.59;28.33;49.33;;
73638;Laerm;53743;51.100;5.874;2023-08-06T05:05:50;42.58;29.93;52.57;;
73638;Laerm;53743;51.100;5.874;2023-08-06T05:06:52;34.80;30.15;51.99;;
73638;Laerm;53743;51.100;5.874;2023-08-06T05:07:56;59.27;31.15;72.00;;
73638;Laerm;53743;51.100;5.874;2023-08-06T05:08:59;64.97;29.10;78.40;;
73638;Laerm;53743;51.100;5.874;2023-08-06T05:10:00;61.07;37.49;79.20;;
73638;Laerm;53743;51.100;5.874;2023-08-06T05:11:02;55.33;28.51;73.16;;
73638;Laerm;53743;51.100;5.874;2023-08-06T05:12:05;56.92;28.69;70.74;;
73638;Laerm;53743;51.100;5.874;2023-08-06T05:13:08;59.41;28.67;75.84;;
73638;Laerm;53743;51.100;5.874;2023-08-06T05:14:10;32.02;28.50;41.27;;
73638;Laerm;53743;51.100;5.874;2023-08-06T05:15:12;54.55;28.61;73.34;;
73638;Laerm;53743;51.100;5.874;2023-08-06T05:16:13;56.01;29.86;72.55;;
73638;Laerm;53743;51.100;5.874;2023-08-06T05:17:15;58.90;28.52;73.78;;
73638;Laerm;53743;51.100;5.874;2023-08-06T05:18:16;56.60;29.39;72.15;;
73638;Laerm;53743;51.100;5.874;2023-08-06T05:19:18;33.60;28.65;49.25;;
73638;Laerm;53743;51.100;5.874;2023-08-06T05:20:20;35.72;28.84;49.51;;
73638;Laerm;53743;51.100;5.874;2023-08-06T05:21:21;55.81;30.32;69.89;;
73638;Laerm;53743;51.100;5.874;2023-08-06T05:22:23;40.59;29.95;53.15;;
73638;Laerm;53743;51.100;5.874;2023-08-06T05:23:24;60.28;32.37;75.53;;
73638;Laerm;53743;51.100;5.874;2023-08-06T05:24:26;36.07;30.66;49.57;;
73638;Laerm;53743;51.100;5.874;2023-08-06T05:25:28;66.61;36.49;80.98;;
73638;Laerm;53743;51.100;5.874;2023-08-06T05:26:30;61.03;29.24;77.53;;
73638;Laerm;53743;51.100;5.874;2023-08-06T05:27:31;31.61;28.77;48.25;;
73638;Laerm;53743;51.100;5.874;2023-08-06T05:28:33;31.71;28.72;53.01;;
73638;Laerm;53743;51.100;5.874;2023-08-06T05:29:36;65.11;29.47;78.65;;
73638;Laerm;53743;51.100;5.874;2023-08-06T05:30:39;61.32;31.51;74.33;;
73638;Laerm;53743;51.100;5.874;2023-08-06T05:31:40;42.03;30.58;54.94;;
73638;Laerm;53743;51.100;5.874;2023-08-06T05:32:42;56.58;30.86;71.24;;
73638;Laerm;53743;51.100;5.874;2023-08-06T05:33:44;63.35;32.62;76.16;;
73638;Laerm;53743;51.100;5.874;2023-08-06T05:34:46;36.79;29.05;51.31;;
73638;Laerm;53743;51.100;5.874;2023-08-06T05:35:49;58.01;30.35;73.89;;
73638;Laerm;53743;51.100;5.874;2023-08-06T05:36:50;57.88;29.41;71.73;;
73638;Laerm;53743;51.100;5.874;2023-08-06T05:37:53;34.71;28.79;51.33;;
73638;Laerm;53743;51.100;5.874;2023-08-06T05:38:54;33.90;28.89;48.94;;
73638;Laerm;53743;51.100;5.874;2023-08-06T05:39:56;58.69;28.39;74.13;;
73638;Laerm;53743;51.100;5.874;2023-08-06T05:40:57;53.20;31.71;66.16;;
73638;Laerm;53743;51.100;5.874;2023-08-06T05:41:59;35.58;29.01;44.68;;
73638;Laerm;53743;51.100;5.874;2023-08-06T05:43:01;64.50;30.77;76.70;;
73638;Laerm;53743;51.100;5.874;2023-08-06T05:44:02;59.95;29.82;76.01;;
73638;Laerm;53743;51.100;5.874;2023-08-06T05:45:07;61.59;29.23;77.58;;
73638;Laerm;53743;51.100;5.874;2023-08-06T05:46:08;54.66;28.41;68.11;;
73638;Laerm;53743;51.100;5.874;2023-08-06T05:47:11;38.79;28.47;49.97;;
73638;Laerm;53743;51.100;5.874;2023-08-06T05:48:12;57.94;32.38;74.07;;
73638;Laerm;53743;51.100;5.874;2023-08-06T05:49:14;54.34;32.22;69.80;;
73638;Laerm;53743;51.100;5.874;2023-08-06T05:50:15;61.93;32.30;74.45;;
73638;Laerm;53743;51.100;5.874;2023-08-06T05:51:18;34.99;29.92;55.08;;
73638;Laerm;53743;51.100;5.874;2023-08-06T05:52:20;58.69;29.51;76.41;;